sensor_id;sensor_type;location;lat;lon;timestamp;temperature;humidity
29731;DHT22;16639;51.488;0.152;2023-12-29T00:01:34;10.80;99.90
29731;DHT22;16639;51.488;0.152;2023-12-29T00:04:01;10.90;99.90
29731;DHT22;16639;51.488;0.152;2023-12-29T00:06:28;10.80;99.90
29731;DHT22;16639;51.488;0.152;2023-12-29T00:08:55;10.80;99.90
29731;DHT22;16639;51.488;0.152;2023-12-29T00:11:22;10.80;99.90
29731;DHT22;16639;51.488;0.152;2023-12-29T00:13:49;10.80;99.90
29731;DHT22;16639;51.488;0.152;2023-12-29T00:16:16;10.70;99.90
29731;DHT22;16639;51.488;0.152;2023-12-29T00:18:43;10.70;99.90
29731;DHT22;16639;51.488;0.152;2023-12-29T00:21:10;10.70;99.90
29731;DHT22;16639;51.488;0.152;2023-12-29T00:23:37;10.70;99.90
29731;DHT22;16639;51.488;0.152;2023-12-29T00:26:04;10.70;99.90
29731;DHT22;16639;51.488;0.152;2023-12-29T00:28:31;10.60;99.90
29731;DHT22;16639;51.488;0.152;2023-12-29T00:30:57;10.60;99.90
29731;DHT22;16639;51.488;0.152;2023-12-29T00:33:29;10.60;99.90
29731;DHT22;16639;51.488;0.152;2023-12-29T00:35:57;10.60;99.90
29731;DHT22;16639;51.488;0.152;2023-12-29T00:38:26;10.60;99.90
29731;DHT22;16639;51.488;0.152;2023-12-29T00:41:21;10.60;99.90
29731;DHT22;16639;51.488;0.152;2023-12-29T00:43:57;10.60;99.90
29731;DHT22;16639;51.488;0.152;2023-12-29T00:47:05;10.60;99.90
29731;DHT22;16639;51.488;0.152;2023-12-29T00:49:38;10.60;99.90
29731;DHT22;16639;51.488;0.152;2023-12-29T00:53:04;10.60;99.90
29731;DHT22;16639;51.488;0.152;2023-12-29T00:55:30;10.50;99.90
29731;DHT22;16639;51.488;0.152;2023-12-29T00:57:57;10.80;99.90
29731;DHT22;16639;51.488;0.152;2023-12-29T01:00:24;10.60;99.90
29731;DHT22;16639;51.488;0.152;2023-12-29T01:02:50;10.60;99.90
29731;DHT22;16639;51.488;0.152;2023-12-29T01:05:17;10.60;99.90
29731;DHT22;16639;51.488;0.152;2023-12-29T01:07:44;10.60;99.90
29731;DHT22;16639;51.488;0.152;2023-12-29T01:10:11;10.60;99.90
29731;DHT22;16639;51.488;0.152;2023-12-29T01:12:40;10.50;99.90
29731;DHT22;16639;51.488;0.152;2023-12-29T01:15:07;10.60;99.90
29731;DHT22;16639;51.488;0.152;2023-12-29T01:17:34;10.50;99.90
29731;DHT22;16639;51.488;0.152;2023-12-29T01:20:01;10.50;99.90
29731;DHT22;16639;51.488;0.152;2023-12-29T01:22:30;10.50;99.90
29731;DHT22;16639;51.488;0.152;2023-12-29T01:24:59;10.50;99.90
29731;DHT22;16639;51.488;0.152;2023-12-29T01:27:27;10.50;99.90
29731;DHT22;16639;51.488;0.152;2023-12-29T01:29:55;10.40;99.90
29731;DHT22;16639;51.488;0.152;2023-12-29T01:32:22;10.40;99.90
29731;DHT22;16639;51.488;0.152;2023-12-29T01:34:49;10.40;99.90
29731;DHT22;16639;51.488;0.152;2023-12-29T01:37:16;10.80;99.90
29731;DHT22;16639;51.488;0.152;2023-12-29T01:39:42;10.40;99.90
29731;DHT22;16639;51.488;0.152;2023-12-29T01:42:10;10.40;99.90
29731;DHT22;16639;51.488;0.152;2023-12-29T01:44:37;9.70;99.90
29731;DHT22;16639;51.488;0.152;2023-12-29T01:47:11;10.40;99.90
29731;DHT22;16639;51.488;0.152;2023-12-29T01:49:40;10.40;99.90
29731;DHT22;16639;51.488;0.152;2023-12-29T01:52:07;10.40;99.90
29731;DHT22;16639;51.488;0.152;2023-12-29T01:54:35;10.50;99.90
29731;DHT22;16639;51.488;0.152;2023-12-29T01:57:02;10.50;99.90
29731;DHT22;16639;51.488;0.152;2023-12-29T01:59:30;10.50;99.90
29731;DHT22;16639;51.488;0.152;2023-12-29T02:01:58;10.50;99.90
29731;DHT22;16639;51.488;0.152;2023-12-29T02:04:25;10.50;99.90
29731;DHT22;16639;51.488;0.152;2023-12-29T02:06:53;10.40;99.90
29731;DHT22;16639;51.488;0.152;2023-12-29T02:09:20;10.50;99.90
29731;DHT22;16639;51.488;0.152;2023-12-29T02:11:47;10.50;99.90
29731;DHT22;16639;51.488;0.152;2023-12-29T02:14:15;10.50;99.90
29731;DHT22;16639;51.488;0.152;2023-12-29T02:19:41;10.50;99.90
29731;DHT22;16639;51.488;0.152;2023-12-29T02:22:12;10.40;99.90
29731;DHT22;16639;51.488;0.152;2023-12-29T02:24:39;10.50;99.90
29731;DHT22;16639;51.488;0.152;2023-12-29T02:32:32;10.50;99.90
29731;DHT22;16639;51.488;0.152;2023-12-29T02:35:01;10.50;99.90
29731;DHT22;16639;51.488;0.152;2023-12-29T02:37:29;10.50;99.90
29731;DHT22;16639;51.488;0.152;2023-12-29T02:39:59;10.50;99.90
29731;DHT22;16639;51.488;0.152;2023-12-29T02:42:25;11.00;99.90
29731;DHT22;16639;51.488;0.152;2023-12-29T02:44:52;10.50;99.90
29731;DHT22;16639;51.488;0.152;2023-12-29T02:47:19;10.90;99.90
29731;DHT22;16639;51.488;0.152;2023-12-29T02:49:47;10.40;99.90
29731;DHT22;16639;51.488;0.152;2023-12-29T02:52:16;10.40;99.90
29731;DHT22;16639;51.488;0.152;2023-12-29T02:54:42;10.40;99.90
29731;DHT22;16639;51.488;0.152;2023-12-29T02:57:09;10.40;99.90
29731;DHT22;16639;51.488;0.152;2023-12-29T02:59:36;10.40;99.90
29731;DHT22;16639;51.488;0.152;2023-12-29T03:02:03;10.50;99.90
29731;DHT22;16639;51.488;0.152;2023-12-29T03:04:30;10.70;99.90
29731;DHT22;16639;51.488;0.152;2023-12-29T03:06:57;10.50;99.90
29731;DHT22;16639;51.488;0.152;2023-12-29T03:09:24;10.50;99.90
29731;DHT22;16639;51.488;0.152;2023-12-29T03:11:50;10.50;99.90
29731;DHT22;16639;51.488;0.152;2023-12-29T03:14:17;10.50;99.90
29731;DHT22;16639;51.488;0.152;2023-12-29T03:16:44;10.40;99.90
29731;DHT22;16639;51.488;0.152;2023-12-29T03:19:10;10.60;99.90
29731;DHT22;16639;51.488;0.152;2023-12-29T03:21:37;10.50;99.90
29731;DHT22;16639;51.488;0.152;2023-12-29T03:24:04;10.50;99.90
29731;DHT22;16639;51.488;0.152;2023-12-29T03:26:31;10.50;99.90
29731;DHT22;16639;51.488;0.152;2023-12-29T03:29:00;10.50;99.90
29731;DHT22;16639;51.488;0.152;2023-12-29T03:31:27;10.50;99.90
29731;DHT22;16639;51.488;0.152;2023-12-29T03:33:54;10.50;99.90
29731;DHT22;16639;51.488;0.152;2023-12-29T03:36:21;10.50;99.90
29731;DHT22;16639;51.488;0.152;2023-12-29T03:38:47;10.50;99.90
29731;DHT22;16639;51.488;0.152;2023-12-29T03:41:14;10.50;99.90
29731;DHT22;16639;51.488;0.152;2023-12-29T03:43:41;10.50;99.90
29731;DHT22;16639;51.488;0.152;2023-12-29T03:46:20;10.50;99.90
29731;DHT22;16639;51.488;0.152;2023-12-29T03:48:48;10.40;99.90
29731;DHT22;16639;51.488;0.152;2023-12-29T03:51:15;10.50;99.90
29731;DHT22;16639;51.488;0.152;2023-12-29T03:53:45;10.60;99.90
29731;DHT22;16639;51.488;0.152;2023-12-29T03:56:16;10.60;99.90
29731;DHT22;16639;51.488;0.152;2023-12-29T03:58:46;10.60;99.90
29731;DHT22;16639;51.488;0.152;2023-12-29T04:01:17;10.60;99.90
29731;DHT22;16639;51.488;0.152;2023-12-29T04:03:44;10.60;99.90
29731;DHT22;16639;51.488;0.152;2023-12-29T04:06:11;10.60;99.90
29731;DHT22;16639;51.488;0.152;2023-12-29T04:08:39;10.60;99.90
29731;DHT22;16639;51.488;0.152;2023-12-29T04:11:06;10.60;99.90
29731;DHT22;16639;51.488;0.152;2023-12-29T04:13:32;10.60;99.90
29731;DHT22;16639;51.488;0.152;2023-12-29T04:15:59;10.70;99.90
29731;DHT22;16639;51.488;0.152;2023-12-29T04:18:29;10.70;99.90
29731;DHT22;16639;51.488;0.152;2023-12-29T04:20:56;11.00;99.90
29731;DHT22;16639;51.488;0.152;2023-12-29T04:23:23;10.70;99.90
29731;DHT22;16639;51.488;0.152;2023-12-29T04:25:50;10.70;99.90
29731;DHT22;16639;51.488;0.152;2023-12-29T04:28:16;10.70;99.90
29731;DHT22;16639;51.488;0.152;2023-12-29T04:30:43;10.80;99.90
29731;DHT22;16639;51.488;0.152;2023-12-29T04:33:10;10.80;99.90
29731;DHT22;16639;51.488;0.152;2023-12-29T04:35:37;10.80;99.90
29731;DHT22;16639;51.488;0.152;2023-12-29T04:38:03;10.80;99.90
29731;DHT22;16639;51.488;0.152;2023-12-29T04:40:30;10.80;99.90
29731;DHT22;16639;51.488;0.152;2023-12-29T04:42:57;11.40;99.90
29731;DHT22;16639;51.488;0.152;2023-12-29T04:45:24;10.80;99.90
29731;DHT22;16639;51.488;0.152;2023-12-29T04:47:50;10.80;99.90
29731;DHT22;16639;51.488;0.152;2023-12-29T04:50:17;10.90;99.90
29731;DHT22;16639;51.488;0.152;2023-12-29T04:52:43;10.80;99.90
29731;DHT22;16639;51.488;0.152;2023-12-29T04:55:10;10.80;99.90
29731;DHT22;16639;51.488;0.152;2023-12-29T04:57:39;10.90;99.90
29731;DHT22;16639;51.488;0.152;2023-12-29T05:00:07;10.80;99.90
29731;DHT22;16639;51.488;0.152;2023-12-29T05:02:34;11.30;99.90
29731;DHT22;16639;51.488;0.152;2023-12-29T05:05:00;10.90;99.90
29731;DHT22;16639;51.488;0.152;2023-12-29T05:07:30;10.90;99.90
29731;DHT22;16639;51.488;0.152;2023-12-29T05:09:57;10.80;99.90
29731;DHT22;16639;51.488;0.152;2023-12-29T05:12:23;10.80;99.90
29731;DHT22;16639;51.488;0.152;2023-12-29T05:14:50;10.80;99.90
29731;DHT22;16639;51.488;0.152;2023-12-29T05:17:17;11.10;99.90
29731;DHT22;16639;51.488;0.152;2023-12-29T05:19:43;10.80;99.90
29731;DHT22;16639;51.488;0.152;2023-12-29T05:22:10;12.20;99.90
29731;DHT22;16639;51.488;0.152;2023-12-29T05:24:43;10.80;99.90
29731;DHT22;16639;51.488;0.152;2023-12-29T05:27:09;10.80;99.90
29731;DHT22;16639;51.488;0.152;2023-12-29T05:29:36;10.80;99.90
29731;DHT22;16639;51.488;0.152;2023-12-29T05:32:04;10.80;99.90
29731;DHT22;16639;51.488;0.152;2023-12-29T05:34:31;10.90;99.90
29731;DHT22;16639;51.488;0.152;2023-12-29T05:36:58;10.90;99.90
29731;DHT22;16639;51.488;0.152;2023-12-29T05:39:25;10.80;99.90
29731;DHT22;16639;51.488;0.152;2023-12-29T05:41:51;10.90;99.90
29731;DHT22;16639;51.488;0.152;2023-12-29T05:44:18;10.90;99.90
29731;DHT22;16639;51.488;0.152;2023-12-29T05:46:46;10.90;99.90
29731;DHT22;16639;51.488;0.152;2023-12-29T05:49:13;10.80;99.90
29731;DHT22;16639;51.488;0.152;2023-12-29T05:51:40;10.90;99.90
29731;DHT22;16639;51.488;0.152;2023-12-29T05:54:10;11.60;99.90
29731;DHT22;16639;51.488;0.152;2023-12-29T05:56:37;11.00;99.90
29731;DHT22;16639;51.488;0.152;2023-12-29T05:59:03;10.60;99.90
29731;DHT22;16639;51.488;0.152;2023-12-29T06:01:30;10.90;99.90
29731;DHT22;16639;51.488;0.152;2023-12-29T06:03:57;10.90;99.90
29731;DHT22;16639;51.488;0.152;2023-12-29T06:06:24;10.90;99.90
29731;DHT22;16639;51.488;0.152;2023-12-29T06:08:50;11.50;99.90
29731;DHT22;16639;51.488;0.152;2023-12-29T06:11:17;10.80;99.90
29731;DHT22;16639;51.488;0.152;2023-12-29T06:13:44;10.80;99.90
29731;DHT22;16639;51.488;0.152;2023-12-29T06:16:20;10.80;99.90
29731;DHT22;16639;51.488;0.152;2023-12-29T06:18:47;10.80;99.90
29731;DHT22;16639;51.488;0.152;2023-12-29T06:21:14;10.70;99.90
29731;DHT22;16639;51.488;0.152;2023-12-29T06:23:41;10.70;99.90
29731;DHT22;16639;51.488;0.152;2023-12-29T06:26:14;10.70;99.90
29731;DHT22;16639;51.488;0.152;2023-12-29T06:28:42;10.70;99.90
29731;DHT22;16639;51.488;0.152;2023-12-29T06:31:09;10.70;99.90
29731;DHT22;16639;51.488;0.152;2023-12-29T06:33:36;10.70;99.90
29731;DHT22;16639;51.488;0.152;2023-12-29T06:36:03;10.70;99.90
29731;DHT22;16639;51.488;0.152;2023-12-29T06:38:29;11.10;99.90
29731;DHT22;16639;51.488;0.152;2023-12-29T06:40:56;10.70;99.90
29731;DHT22;16639;51.488;0.152;2023-12-29T06:43:23;10.70;99.90
29731;DHT22;16639;51.488;0.152;2023-12-29T06:45:50;10.60;99.90
29731;DHT22;16639;51.488;0.152;2023-12-29T06:48:18;10.60;99.90
29731;DHT22;16639;51.488;0.152;2023-12-29T06:50:47;10.60;99.90
29731;DHT22;16639;51.488;0.152;2023-12-29T06:53:15;10.70;99.90
29731;DHT22;16639;51.488;0.152;2023-12-29T06:55:42;10.70;99.90
29731;DHT22;16639;51.488;0.152;2023-12-29T06:58:09;10.60;99.90
29731;DHT22;16639;51.488;0.152;2023-12-29T07:00:38;10.60;99.90
29731;DHT22;16639;51.488;0.152;2023-12-29T07:03:07;10.60;99.90
29731;DHT22;16639;51.488;0.152;2023-12-29T07:05:34;10.60;99.90
29731;DHT22;16639;51.488;0.152;2023-12-29T07:08:02;10.60;99.90
29731;DHT22;16639;51.488;0.152;2023-12-29T07:10:30;10.70;99.90
29731;DHT22;16639;51.488;0.152;2023-12-29T07:12:57;10.60;99.90
29731;DHT22;16639;51.488;0.152;2023-12-29T07:15:25;10.60;99.90
29731;DHT22;16639;51.488;0.152;2023-12-29T07:17:52;10.60;99.90
29731;DHT22;16639;51.488;0.152;2023-12-29T07:20:20;10.60;99.90
29731;DHT22;16639;51.488;0.152;2023-12-29T07:22:47;10.70;99.90
29731;DHT22;16639;51.488;0.152;2023-12-29T07:25:18;10.70;99.90
29731;DHT22;16639;51.488;0.152;2023-12-29T07:27:46;10.60;99.90
29731;DHT22;16639;51.488;0.152;2023-12-29T07:30:14;10.60;99.90
29731;DHT22;16639;51.488;0.152;2023-12-29T07:32:42;10.60;99.90
29731;DHT22;16639;51.488;0.152;2023-12-29T07:35:09;10.90;99.90
29731;DHT22;16639;51.488;0.152;2023-12-29T07:37:37;10.70;99.90
29731;DHT22;16639;51.488;0.152;2023-12-29T07:40:05;10.70;99.90
29731;DHT22;16639;51.488;0.152;2023-12-29T07:42:41;10.70;99.90
29731;DHT22;16639;51.488;0.152;2023-12-29T07:45:09;10.70;99.90
29731;DHT22;16639;51.488;0.152;2023-12-29T07:47:36;10.70;99.90
29731;DHT22;16639;51.488;0.152;2023-12-29T07:50:05;10.70;99.90
29731;DHT22;16639;51.488;0.152;2023-12-29T07:52:33;10.70;99.90
29731;DHT22;16639;51.488;0.152;2023-12-29T07:55:00;10.70;99.90
29731;DHT22;16639;51.488;0.152;2023-12-29T07:57:28;10.70;99.90
29731;DHT22;16639;51.488;0.152;2023-12-29T07:59:55;10.70;99.90
29731;DHT22;16639;51.488;0.152;2023-12-29T08:02:23;10.70;99.90
29731;DHT22;16639;51.488;0.152;2023-12-29T08:04:50;10.70;99.90
29731;DHT22;16639;51.488;0.152;2023-12-29T08:07:18;10.70;99.90
29731;DHT22;16639;51.488;0.152;2023-12-29T08:09:45;10.70;99.90
29731;DHT22;16639;51.488;0.152;2023-12-29T08:12:13;10.80;99.90
29731;DHT22;16639;51.488;0.152;2023-12-29T08:14:40;10.70;99.90
29731;DHT22;16639;51.488;0.152;2023-12-29T08:17:08;10.70;99.90
29731;DHT22;16639;51.488;0.152;2023-12-29T08:19:36;10.70;99.90
29731;DHT22;16639;51.488;0.152;2023-12-29T08:22:04;10.80;99.90
29731;DHT22;16639;51.488;0.152;2023-12-29T08:24:32;11.10;99.90
29731;DHT22;16639;51.488;0.152;2023-12-29T08:26:59;10.80;99.90
29731;DHT22;16639;51.488;0.152;2023-12-29T08:29:27;10.70;99.90
29731;DHT22;16639;51.488;0.152;2023-12-29T08:31:54;10.70;99.90
29731;DHT22;16639;51.488;0.152;2023-12-29T08:34:21;10.70;99.90
29731;DHT22;16639;51.488;0.152;2023-12-29T08:36:51;10.70;99.90
29731;DHT22;16639;51.488;0.152;2023-12-29T08:39:18;10.80;99.90
29731;DHT22;16639;51.488;0.152;2023-12-29T08:41:46;10.80;99.90
29731;DHT22;16639;51.488;0.152;2023-12-29T08:44:14;10.80;99.90
29731;DHT22;16639;51.488;0.152;2023-12-29T08:46:41;10.90;99.90
29731;DHT22;16639;51.488;0.152;2023-12-29T08:49:09;10.90;99.90
29731;DHT22;16639;51.488;0.152;2023-12-29T08:51:36;11.00;99.90
29731;DHT22;16639;51.488;0.152;2023-12-29T08:54:04;11.00;99.90
29731;DHT22;16639;51.488;0.152;2023-12-29T08:56:32;11.10;99.90
29731;DHT22;16639;51.488;0.152;2023-12-29T08:58:59;11.00;99.90
29731;DHT22;16639;51.488;0.152;2023-12-29T09:01:26;11.00;99.90
29731;DHT22;16639;51.488;0.152;2023-12-29T09:03:54;11.80;99.90
29731;DHT22;16639;51.488;0.152;2023-12-29T09:06:21;10.90;99.90
29731;DHT22;16639;51.488;0.152;2023-12-29T09:08:49;11.00;99.90
29731;DHT22;16639;51.488;0.152;2023-12-29T09:11:16;11.00;99.90
29731;DHT22;16639;51.488;0.152;2023-12-29T09:13:43;10.90;99.90
29731;DHT22;16639;51.488;0.152;2023-12-29T09:16:11;11.00;99.90
29731;DHT22;16639;51.488;0.152;2023-12-29T09:18:38;10.90;99.90
29731;DHT22;16639;51.488;0.152;2023-12-29T09:21:06;10.90;99.90
29731;DHT22;16639;51.488;0.152;2023-12-29T09:23:33;10.90;99.90
29731;DHT22;16639;51.488;0.152;2023-12-29T09:26:01;11.50;99.90
29731;DHT22;16639;51.488;0.152;2023-12-29T09:28:28;10.90;99.90
29731;DHT22;16639;51.488;0.152;2023-12-29T09:30:56;10.90;99.90
29731;DHT22;16639;51.488;0.152;2023-12-29T09:33:23;10.90;99.90
29731;DHT22;16639;51.488;0.152;2023-12-29T09:35:52;10.90;99.90
29731;DHT22;16639;51.488;0.152;2023-12-29T09:38:19;10.90;99.90
29731;DHT22;16639;51.488;0.152;2023-12-29T09:40:47;11.00;99.90
29731;DHT22;16639;51.488;0.152;2023-12-29T09:43:16;10.90;99.90
29731;DHT22;16639;51.488;0.152;2023-12-29T09:45:45;10.90;99.90
29731;DHT22;16639;51.488;0.152;2023-12-29T09:48:16;10.90;99.90
29731;DHT22;16639;51.488;0.152;2023-12-29T09:50:50;10.90;99.90
29731;DHT22;16639;51.488;0.152;2023-12-29T09:53:22;10.90;99.90
29731;DHT22;16639;51.488;0.152;2023-12-29T09:55:51;11.90;99.90
29731;DHT22;16639;51.488;0.152;2023-12-29T09:58:21;10.90;99.90
29731;DHT22;16639;51.488;0.152;2023-12-29T10:00:49;11.00;99.90
29731;DHT22;16639;51.488;0.152;2023-12-29T10:03:17;11.00;99.90
29731;DHT22;16639;51.488;0.152;2023-12-29T10:05:50;11.00;99.90
29731;DHT22;16639;51.488;0.152;2023-12-29T10:08:24;11.00;99.90
29731;DHT22;16639;51.488;0.152;2023-12-29T10:10:54;11.30;99.90
29731;DHT22;16639;51.488;0.152;2023-12-29T10:13:23;11.00;99.90
29731;DHT22;16639;51.488;0.152;2023-12-29T10:16:08;11.00;99.90
29731;DHT22;16639;51.488;0.152;2023-12-29T10:18:47;11.00;99.90
29731;DHT22;16639;51.488;0.152;2023-12-29T10:21:27;11.00;99.90
29731;DHT22;16639;51.488;0.152;2023-12-29T10:24:17;11.10;99.90
29731;DHT22;16639;51.488;0.152;2023-12-29T10:26:45;11.20;99.90
29731;DHT22;16639;51.488;0.152;2023-12-29T10:29:12;11.20;99.90
29731;DHT22;16639;51.488;0.152;2023-12-29T10:31:42;11.10;99.90
29731;DHT22;16639;51.488;0.152;2023-12-29T10:34:23;11.00;99.90
29731;DHT22;16639;51.488;0.152;2023-12-29T10:37:03;11.30;99.90
29731;DHT22;16639;51.488;0.152;2023-12-29T10:39:34;11.20;99.90
29731;DHT22;16639;51.488;0.152;2023-12-29T10:42:07;11.20;99.90
29731;DHT22;16639;51.488;0.152;2023-12-29T10:44:36;11.10;99.90
29731;DHT22;16639;51.488;0.152;2023-12-29T10:47:13;11.20;99.90
29731;DHT22;16639;51.488;0.152;2023-12-29T10:49:41;11.30;99.90
29731;DHT22;16639;51.488;0.152;2023-12-29T10:52:13;11.30;99.90
29731;DHT22;16639;51.488;0.152;2023-12-29T10:54:44;11.40;99.90
29731;DHT22;16639;51.488;0.152;2023-12-29T10:57:12;11.40;99.90
29731;DHT22;16639;51.488;0.152;2023-12-29T10:59:40;11.40;99.90
29731;DHT22;16639;51.488;0.152;2023-12-29T11:02:11;11.50;99.90
29731;DHT22;16639;51.488;0.152;2023-12-29T11:04:42;11.60;99.90
29731;DHT22;16639;51.488;0.152;2023-12-29T11:07:12;11.60;99.90
29731;DHT22;16639;51.488;0.152;2023-12-29T11:09:40;11.60;99.90
29731;DHT22;16639;51.488;0.152;2023-12-29T11:12:09;11.60;99.90
29731;DHT22;16639;51.488;0.152;2023-12-29T11:14:37;11.60;99.90
29731;DHT22;16639;51.488;0.152;2023-12-29T11:17:05;11.60;99.90
29731;DHT22;16639;51.488;0.152;2023-12-29T11:19:34;11.50;99.90
29731;DHT22;16639;51.488;0.152;2023-12-29T11:22:04;11.50;99.90
29731;DHT22;16639;51.488;0.152;2023-12-29T11:24:32;11.50;99.90
29731;DHT22;16639;51.488;0.152;2023-12-29T11:27:10;11.50;99.90
29731;DHT22;16639;51.488;0.152;2023-12-29T11:29:41;11.60;99.90
29731;DHT22;16639;51.488;0.152;2023-12-29T11:32:16;11.70;99.90
29731;DHT22;16639;51.488;0.152;2023-12-29T11:34:53;11.70;99.90
29731;DHT22;16639;51.488;0.152;2023-12-29T11:37:34;11.70;99.90
29731;DHT22;16639;51.488;0.152;2023-12-29T11:40:16;11.80;99.90
29731;DHT22;16639;51.488;0.152;2023-12-29T11:42:48;11.80;99.90
29731;DHT22;16639;51.488;0.152;2023-12-29T11:45:29;11.80;99.90
29731;DHT22;16639;51.488;0.152;2023-12-29T11:48:01;11.90;99.90
29731;DHT22;16639;51.488;0.152;2023-12-29T11:50:37;12.00;99.90
29731;DHT22;16639;51.488;0.152;2023-12-29T11:53:06;11.90;99.90
29731;DHT22;16639;51.488;0.152;2023-12-29T11:55:38;11.90;99.90
29731;DHT22;16639;51.488;0.152;2023-12-29T11:58:25;11.80;99.90
29731;DHT22;16639;51.488;0.152;2023-12-29T12:00:56;11.80;99.90
29731;DHT22;16639;51.488;0.152;2023-12-29T12:03:25;11.80;99.90
29731;DHT22;16639;51.488;0.152;2023-12-29T12:05:54;11.80;99.90
29731;DHT22;16639;51.488;0.152;2023-12-29T12:08:28;11.80;99.90
29731;DHT22;16639;51.488;0.152;2023-12-29T12:10:57;11.70;99.90
29731;DHT22;16639;51.488;0.152;2023-12-29T12:13:53;11.70;99.90
29731;DHT22;16639;51.488;0.152;2023-12-29T12:16:54;11.80;99.90
29731;DHT22;16639;51.488;0.152;2023-12-29T12:19:21;11.80;99.90
29731;DHT22;16639;51.488;0.152;2023-12-29T12:21:53;11.90;99.90
29731;DHT22;16639;51.488;0.152;2023-12-29T12:24:24;11.90;99.90
29731;DHT22;16639;51.488;0.152;2023-12-29T12:26:54;12.00;99.90
29731;DHT22;16639;51.488;0.152;2023-12-29T12:29:21;12.00;99.90
29731;DHT22;16639;51.488;0.152;2023-12-29T12:31:56;12.00;99.90
29731;DHT22;16639;51.488;0.152;2023-12-29T12:34:24;12.00;99.90
29731;DHT22;16639;51.488;0.152;2023-12-29T12:36:53;12.00;99.90
29731;DHT22;16639;51.488;0.152;2023-12-29T12:39:37;12.00;99.90
29731;DHT22;16639;51.488;0.152;2023-12-29T12:42:05;12.00;99.90
29731;DHT22;16639;51.488;0.152;2023-12-29T12:44:32;13.10;99.90
29731;DHT22;16639;51.488;0.152;2023-12-29T12:47:01;12.00;99.90
29731;DHT22;16639;51.488;0.152;2023-12-29T12:49:33;12.00;99.90
29731;DHT22;16639;51.488;0.152;2023-12-29T12:52:01;12.00;99.90
29731;DHT22;16639;51.488;0.152;2023-12-29T12:54:29;12.00;99.90
29731;DHT22;16639;51.488;0.152;2023-12-29T12:57:00;12.00;99.90
29731;DHT22;16639;51.488;0.152;2023-12-29T12:59:28;11.90;99.90
29731;DHT22;16639;51.488;0.152;2023-12-29T13:01:56;11.90;99.90
29731;DHT22;16639;51.488;0.152;2023-12-29T13:04:27;11.90;99.90
29731;DHT22;16639;51.488;0.152;2023-12-29T13:06:55;11.90;99.90
29731;DHT22;16639;51.488;0.152;2023-12-29T13:09:22;11.90;99.90
29731;DHT22;16639;51.488;0.152;2023-12-29T13:11:50;11.90;99.90
29731;DHT22;16639;51.488;0.152;2023-12-29T13:14:24;10.80;99.90
29731;DHT22;16639;51.488;0.152;2023-12-29T13:16:53;11.80;99.90
29731;DHT22;16639;51.488;0.152;2023-12-29T13:19:24;11.70;99.90
29731;DHT22;16639;51.488;0.152;2023-12-29T13:21:54;11.70;99.90
29731;DHT22;16639;51.488;0.152;2023-12-29T13:24:25;11.80;99.90
29731;DHT22;16639;51.488;0.152;2023-12-29T13:26:58;11.70;99.90
29731;DHT22;16639;51.488;0.152;2023-12-29T13:29:29;11.70;99.90
29731;DHT22;16639;51.488;0.152;2023-12-29T13:32:01;11.50;99.90
29731;DHT22;16639;51.488;0.152;2023-12-29T13:34:38;12.00;99.90
29731;DHT22;16639;51.488;0.152;2023-12-29T13:40:22;12.10;99.90
29731;DHT22;16639;51.488;0.152;2023-12-29T13:42:56;11.80;99.90
29731;DHT22;16639;51.488;0.152;2023-12-29T13:45:25;11.50;99.90
29731;DHT22;16639;51.488;0.152;2023-12-29T13:47:53;11.40;99.90
29731;DHT22;16639;51.488;0.152;2023-12-29T13:50:22;11.20;99.90
29731;DHT22;16639;51.488;0.152;2023-12-29T13:52:50;11.00;99.90
29731;DHT22;16639;51.488;0.152;2023-12-29T13:55:24;10.90;99.90
29731;DHT22;16639;51.488;0.152;2023-12-29T13:57:52;10.90;99.90
29731;DHT22;16639;51.488;0.152;2023-12-29T14:00:25;10.90;99.90
29731;DHT22;16639;51.488;0.152;2023-12-29T14:05:51;10.80;99.90
29731;DHT22;16639;51.488;0.152;2023-12-29T14:08:25;10.30;99.90
29731;DHT22;16639;51.488;0.152;2023-12-29T14:10:52;10.90;99.90
29731;DHT22;16639;51.488;0.152;2023-12-29T14:13:20;10.90;99.90
29731;DHT22;16639;51.488;0.152;2023-12-29T14:15:48;10.90;99.90
29731;DHT22;16639;51.488;0.152;2023-12-29T14:20:59;10.90;99.90
29731;DHT22;16639;51.488;0.152;2023-12-29T14:23:26;11.10;99.90
29731;DHT22;16639;51.488;0.152;2023-12-29T14:26:02;11.10;99.90
29731;DHT22;16639;51.488;0.152;2023-12-29T14:28:30;11.10;99.90
29731;DHT22;16639;51.488;0.152;2023-12-29T14:31:03;11.10;99.90
29731;DHT22;16639;51.488;0.152;2023-12-29T14:33:30;11.10;99.90
29731;DHT22;16639;51.488;0.152;2023-12-29T14:35:58;11.10;99.90
29731;DHT22;16639;51.488;0.152;2023-12-29T14:38:25;11.00;99.90
29731;DHT22;16639;51.488;0.152;2023-12-29T14:40:56;11.00;99.90
29731;DHT22;16639;51.488;0.152;2023-12-29T14:43:24;11.00;99.90
29731;DHT22;16639;51.488;0.152;2023-12-29T14:45:51;11.00;99.90
29731;DHT22;16639;51.488;0.152;2023-12-29T14:48:19;11.70;99.90
29731;DHT22;16639;51.488;0.152;2023-12-29T14:50:48;11.00;99.90
29731;DHT22;16639;51.488;0.152;2023-12-29T14:53:15;11.00;99.90
29731;DHT22;16639;51.488;0.152;2023-12-29T14:55:42;11.10;99.90
29731;DHT22;16639;51.488;0.152;2023-12-29T14:58:15;11.00;99.90
29731;DHT22;16639;51.488;0.152;2023-12-29T15:00:45;10.40;99.90
29731;DHT22;16639;51.488;0.152;2023-12-29T15:03:16;11.00;99.90
29731;DHT22;16639;51.488;0.152;2023-12-29T15:05:46;11.00;99.90
29731;DHT22;16639;51.488;0.152;2023-12-29T15:08:14;10.90;99.90
29731;DHT22;16639;51.488;0.152;2023-12-29T15:10:42;10.90;99.90
29731;DHT22;16639;51.488;0.152;2023-12-29T15:13:11;10.70;99.90
29731;DHT22;16639;51.488;0.152;2023-12-29T15:15:39;10.90;99.90
29731;DHT22;16639;51.488;0.152;2023-12-29T15:18:07;10.90;99.90
29731;DHT22;16639;51.488;0.152;2023-12-29T15:20:34;11.20;99.90
29731;DHT22;16639;51.488;0.152;2023-12-29T15:23:02;10.90;99.90
29731;DHT22;16639;51.488;0.152;2023-12-29T15:25:29;10.90;99.90
29731;DHT22;16639;51.488;0.152;2023-12-29T15:28:01;10.90;99.90
29731;DHT22;16639;51.488;0.152;2023-12-29T15:30:28;10.90;99.90
29731;DHT22;16639;51.488;0.152;2023-12-29T15:32:56;11.00;99.90
29731;DHT22;16639;51.488;0.152;2023-12-29T15:35:23;10.90;99.90
29731;DHT22;16639;51.488;0.152;2023-12-29T15:37:51;11.00;99.90
29731;DHT22;16639;51.488;0.152;2023-12-29T15:40:20;11.00;99.90
29731;DHT22;16639;51.488;0.152;2023-12-29T15:42:47;11.00;99.90
29731;DHT22;16639;51.488;0.152;2023-12-29T15:45:17;11.00;99.90
29731;DHT22;16639;51.488;0.152;2023-12-29T15:47:46;11.00;99.90
29731;DHT22;16639;51.488;0.152;2023-12-29T15:50:14;10.90;99.90
29731;DHT22;16639;51.488;0.152;2023-12-29T15:52:41;11.00;99.90
29731;DHT22;16639;51.488;0.152;2023-12-29T15:55:13;11.00;99.90
29731;DHT22;16639;51.488;0.152;2023-12-29T15:57:43;10.90;99.90
29731;DHT22;16639;51.488;0.152;2023-12-29T16:00:12;11.00;99.90